Magnus Heinason — OW2252 — position and weather

sailwx.info

Track history (hours):
 
Tides and Currents Weather Stations Pressure Air Temp Water Temp Dewpoint Dewpoint Depression Visibility Wind Speed Wind Dir Waves Ship Positions

Oceanographic research ship Magnus Heinason (Faroe Islands)

Detailed information on ship capabilities available from ARCUS's ALIAS (Arctic Logistics Information and Support) project.

Last reported at 2016-Aug-25 21:33 UTC. Time now 2016-Aug-25 22:01 UTC.
Position N 62°01' W 007°39'.

Length 44 m; draft 4 m.

Type: . MMSI: 231041000.

Date/timePositionNaut miles runAvg speedWind from/ knotsBaromVisibWave heightAir tempDewpointWater temp
2016-Aug-25 21:33N 62°01' W 007°39'4 3.6
2016-Aug-25 20:33N 62°00' W 007°31'6 6.4
2016-Aug-25 19:33N 62°05' W 007°22'5 5.1
2016-Aug-25 18:33N 62°05' W 007°33'1010.1
2016-Aug-25 17:33N 62°02' W 007°54'1 1.0
2016-Aug-25 16:33N 62°01' W 007°54'3 2.9
2016-Aug-25 15:33N 62°04' W 007°57'6 5.5
2016-Aug-25 14:33N 62°08' W 008°06'4 4.0
2016-Aug-25 13:33N 62°12' W 008°06'3 2.5
2016-Aug-25 12:33N 62°14' W 008°03'6 5.6
2016-Aug-25 11:33N 62°11' W 008°13'5 5.1
2016-Aug-25 10:33N 62°08' W 008°22'3 3.3
2016-Aug-25 09:33N 62°11' W 008°22'3 3.3
2016-Aug-25 08:33N 62°14' W 008°21'4 3.9
2016-Aug-25 07:33N 62°17' W 008°15'5 4.9
2016-Aug-25 06:33N 62°21' W 008°10'9 4.5
2016-Aug-25 04:33N 62°19' W 007°52'3 3.3
2016-Aug-25 03:33N 62°16' W 007°52'1 0.9
2016-Aug-25 02:34N 62°15' W 007°52'6 5.9
2016-Aug-25 01:33N 62°12' W 007°41'3 2.6
2016-Aug-25 00:33N 62°14' W 007°42'3 3.2
2016-Aug-24 23:33N 62°15' W 007°35'4 3.9
2016-Aug-24 22:33N 62°14' W 007°26'5 4.5
2016-Aug-24 21:33N 62°13' W 007°17'1 0.6
2016-Aug-24 20:33N 62°13' W 007°18'4 4.2
2016-Aug-24 19:33N 62°17' W 007°20'7 6.8
2016-Aug-24 18:33N 62°23' W 007°26'3 3.5
2016-Aug-24 17:33N 62°20' W 007°30'5 4.8
2016-Aug-24 16:33N 62°17' W 007°38'3 3.0
2016-Aug-24 15:33N 62°20' W 007°40'4 3.6
2016-Aug-24 14:33N 62°21' W 007°48'5 5.3
2016-Aug-24 13:33N 62°26' W 007°52'3 2.6
2016-Aug-24 12:33N 62°26' W 007°58'8 8.2
2016-Aug-24 11:33N 62°32' W 008°09'3 2.8
2016-Aug-24 10:33N 62°31' W 008°14'3 3.4
2016-Aug-24 09:33N 62°28' W 008°19'6 6.1
2016-Aug-24 08:33N 62°23' W 008°26'4 4.0
2016-Aug-24 07:33N 62°20' W 008°32'4 3.7
2016-Aug-24 06:33N 62°17' W 008°37'12 6.1
2016-Aug-24 04:33N 62°25' W 008°58'3 2.6
2016-Aug-24 03:33N 62°27' W 008°54'2 2.1
2016-Aug-24 02:33N 62°25' W 008°55'3 3.5
2016-Aug-24 01:33N 62°23' W 009°01'2 2.4
2016-Aug-24 00:33N 62°25' W 009°00'2 2.1
2016-Aug-23 23:33N 62°23' W 009°01'2 1.7
2016-Aug-23 22:33N 62°22' W 008°58'2 2.2
2016-Aug-23 21:33N 62°23' W 008°55'4 3.9
2016-Aug-23 20:33N 62°20' W 008°59'3 2.8
2016-Aug-23 19:33N 62°17' W 008°59'3 2.9
2016-Aug-23 18:33N 62°15' W 009°02'3 3.3
2016-Aug-23 17:33N 62°11' W 009°03'6 6.0
2016-Aug-23 16:33N 62°12' W 008°51'4 4.0
2016-Aug-23 15:33N 62°13' W 008°42'4 3.8
2016-Aug-23 14:33N 62°10' W 008°43'8 7.9
2016-Aug-23 13:33N 62°02' W 008°41'3 2.6
2016-Aug-23 12:33N 62°04' W 008°43'2 2.4
2016-Aug-23 11:33N 62°03' W 008°38'6 5.7
2016-Aug-23 10:33N 61°58' W 008°40'1 0.9
2016-Aug-23 09:33N 61°58' W 008°41'1 1.0
2016-Aug-23 08:33N 61°59' W 008°39'4 4.1
2016-Aug-23 07:33N 61°55' W 008°38'6 6.3
2016-Aug-23 06:33N 61°49' W 008°32'3 3.5
2016-Aug-23 05:33N 61°46' W 008°28'3 2.8
2016-Aug-23 04:33N 61°49' W 008°29'7 6.8
2016-Aug-23 03:33N 61°51' W 008°16'3 2.7
2016-Aug-23 02:33N 61°51' W 008°10'4 3.9
2016-Aug-23 01:33N 61°48' W 008°07'3 3.3
2016-Aug-23 00:33N 61°44' W 008°05'7 6.6
2016-Aug-22 23:33N 61°41' W 008°17'3 3.3
2016-Aug-22 22:33N 61°40' W 008°10'4 3.9
2016-Aug-22 21:33N 61°39' W 008°17'4 3.5
2016-Aug-22 20:34N 61°35' W 008°16'9 9.4
2016-Aug-22 19:34N 61°40' W 007°59'3 3.5
2016-Aug-22 18:33N 61°42' W 007°53'6 6.1
2016-Aug-22 17:33N 61°45' W 007°41'1010.3
2016-Aug-22 16:33N 61°50' W 007°22'1010.4
2016-Aug-22 15:33N 61°54' W 007°02'10 9.9
2016-Aug-22 14:34N 61°59' W 006°43'2 2.3
2016-Aug-22 13:34N 62°00' W 006°46'0 0.0
2016-Aug-22 12:33N 62°00' W 006°46'0 0.0
2016-Aug-22 11:33N 62°00' W 006°46'0 0.0
2016-Aug-22 10:33N 62°00' W 006°46'0 0.0
2016-Aug-22 09:33N 62°00' W 006°46'0 0.0
2016-Aug-22 08:33N 62°00' W 006°46'0 0.0
2016-Aug-22 07:33N 62°00' W 006°46'3 2.5
2016-Aug-22 06:33N 61°58' W 006°43'5 4.9
2016-Aug-22 05:33N 61°55' W 006°52'6 5.7
2016-Aug-22 04:33N 61°53' W 007°03'9 8.8
2016-Aug-22 03:33N 61°47' W 007°15'9 8.6
2016-Aug-22 02:33N 61°40' W 007°27'4 4.2
2016-Aug-22 01:33N 61°38' W 007°34'2 1.6
2016-Aug-22 00:33N 61°36' W 007°33'1 1.1
2016-Aug-21 23:33N 61°36' W 007°35'7 7.4
2016-Aug-21 22:33N 61°41' W 007°24'3 3.3
2016-Aug-21 21:33N 61°45' W 007°22'3 3.4
2016-Aug-21 20:33N 61°48' W 007°21'3 3.3
2016-Aug-21 19:33N 61°51' W 007°23'3 3.1
2016-Aug-21 18:33N 61°54' W 007°25'5 4.9
2016-Aug-21 17:33N 61°56' W 007°15'3 2.6
2016-Aug-21 16:34N 61°55' W 007°21'3 3.4
2016-Aug-21 15:33N 61°52' W 007°18'2 1.7
2016-Aug-21 14:33N 61°50' W 007°17'1 0.9
2016-Aug-21 13:33N 61°49' W 007°18'0 0.3
2016-Aug-21 12:33N 61°50' W 007°18'0 0.4
2016-Aug-21 11:33N 61°50' W 007°18'9 8.5
2016-Aug-21 10:33N 61°45' W 007°04'2 2.3
2016-Aug-21 09:33N 61°43' W 007°02'1 1.3
2016-Aug-21 08:33N 61°43' W 007°04'3 3.1
2016-Aug-21 07:33N 61°45' W 007°08'2 1.5
2016-Aug-21 06:33N 61°46' W 007°10'4 4.0
2016-Aug-21 05:33N 61°43' W 007°05'4 3.9
2016-Aug-21 04:33N 61°40' W 007°12'4 3.6
2016-Aug-21 03:33N 61°38' W 007°17'4 3.9
2016-Aug-21 02:33N 61°34' W 007°14'3 3.5
2016-Aug-21 01:34N 61°31' W 007°11'7 7.4
2016-Aug-21 00:33N 61°24' W 007°07'3 3.3
2016-Aug-20 23:33N 61°22' W 007°02'5 4.5
2016-Aug-20 22:33N 61°18' W 006°55'4 3.5
2016-Aug-20 21:33N 61°16' W 006°51'7 7.5
2016-Aug-20 20:33N 61°15' W 006°35'6 5.7
2016-Aug-20 19:33N 61°13' W 006°24'3 3.4
2016-Aug-20 18:33N 61°10' W 006°24'3 2.6
2016-Aug-20 17:33N 61°07' W 006°23'3 3.1
2016-Aug-20 16:33N 61°06' W 006°29'3 2.9
2016-Aug-20 15:30N 61°06' W 006°35'2 2.5
2016-Aug-20 14:32N 61°04' W 006°39'9 4.3
2016-Aug-20 12:33N 61°01' W 006°23'7 6.6
2016-Aug-20 11:33N 60°59' W 006°09'3 3.2
2016-Aug-20 10:33N 60°56' W 006°09'2 1.9
2016-Aug-20 09:33N 60°56' W 006°13'3 3.5
2016-Aug-20 08:33N 60°59' W 006°17'2 2.5
2016-Aug-20 07:33N 60°57' W 006°21'4 3.6
2016-Aug-20 06:33N 60°54' W 006°24'17 4.3
2016-Aug-20 02:33N 60°54' W 006°59'9 3.0
2016-Aug-19 23:30N 60°47' W 006°48'15 1.9
2016-Aug-19 15:32N 60°42' W 006°20'5 5.6
2016-Aug-19 14:33N 60°41' W 006°09'4 3.6
2016-Aug-19 13:33N 60°45' W 006°10'4 3.4
2016-Aug-19 12:18N 60°48' W 006°14'8 7.3
2016-Aug-19 11:12N 60°50' W 005°59'5 8.1
2016-Aug-19 10:32N 60°51' W 005°48'3 2.6
2016-Aug-19 09:23N 60°52' W 005°42'3 3.7
2016-Aug-19 08:33N 60°52' W 005°36'3 3.4
2016-Aug-19 07:33N 60°55' W 005°31'7 7.3
2016-Aug-19 06:33N 61°01' W 005°23'3 3.1
2016-Aug-19 05:33N 61°04' W 005°21'7 7.0
2016-Aug-19 04:33N 61°08' W 005°33'9 8.5
2016-Aug-19 03:33N 61°11' W 005°49'9 8.8
2016-Aug-19 02:33N 61°15' W 006°06'3 3.1
2016-Aug-19 01:33N 61°18' W 006°06'7 6.9
2016-Aug-19 00:33N 61°25' W 006°10'9 9.1
2016-Aug-18 23:33N 61°33' W 006°18'9 9.5
2016-Aug-18 22:33N 61°42' W 006°26'9 9.3
2016-Aug-18 21:33N 61°50' W 006°34'9 9.4
2016-Aug-18 20:34N 61°59' W 006°43'2 2.4
2016-Aug-18 19:33N 62°00' W 006°46'0 0.0
2016-Aug-18 18:33N 62°00' W 006°46'0 0.0
2016-Aug-18 17:33N 62°00' W 006°46'0 0.0
2016-Aug-18 16:33N 62°00' W 006°46'0 0.0
2016-Aug-18 15:33N 62°00' W 006°46'0 0.0
2016-Aug-18 14:33N 62°00' W 006°46'0 0.0
2016-Aug-18 13:33N 62°00' W 006°46'0 0.0
2016-Aug-18 12:33N 62°00' W 006°46'0 0.0
2016-Aug-18 11:33N 62°00' W 006°46'0 0.0
2016-Aug-18 10:33N 62°00' W 006°46'0 0.0
2016-Aug-18 09:33N 62°00' W 006°46'0 0.0
2016-Aug-18 08:33N 62°00' W 006°46'0 0.0
2016-Aug-18 07:34N 62°00' W 006°46'0 0.0
2016-Aug-18 06:33N 62°00' W 006°46'0 0.0
2016-Aug-18 05:34N 62°00' W 006°46'0 0.0
2016-Aug-18 04:33N 62°00' W 006°46'0 0.0
2016-Aug-18 03:33N 62°00' W 006°46'0 0.0
2016-Aug-18 02:33N 62°00' W 006°46'0 0.0
2016-Aug-18 01:33N 62°00' W 006°46'0 0.0
2016-Aug-18 00:33N 62°00' W 006°46'0 0.0
2016-Aug-17 23:33N 62°00' W 006°46'0 0.0
2016-Aug-17 22:33N 62°00' W 006°46'0 0.0
2016-Aug-17 21:33N 62°00' W 006°46'0 0.0
2016-Aug-17 20:33N 62°00' W 006°46'0 0.0
2016-Aug-17 19:33N 62°00' W 006°46'0 0.0
2016-Aug-17 18:33N 62°00' W 006°46'0 0.0
2016-Aug-17 17:33N 62°00' W 006°46'0 0.0
2016-Aug-17 16:33N 62°00' W 006°46'0 0.0
2016-Aug-17 15:33N 62°00' W 006°46'0 0.0
2016-Aug-17 14:33N 62°00' W 006°46'0 0.0
2016-Aug-17 13:33N 62°00' W 006°46'0 0.0
2016-Aug-17 12:33N 62°00' W 006°46'0 0.0
2016-Aug-17 11:33N 62°00' W 006°46'0 0.0
2016-Aug-17 10:33N 62°00' W 006°46'0 0.1
2016-Aug-17 09:33N 62°00' W 006°46'0 0.1
2016-Aug-17 08:33N 62°00' W 006°46'0 0.0
2016-Aug-17 07:33N 62°00' W 006°46'0 0.0
2016-Aug-17 06:33N 62°00' W 006°46'0 0.0
2016-Aug-17 05:34N 62°00' W 006°46'1 0.8
2016-Aug-17 04:33N 61°60' W 006°45'3 3.0
2016-Aug-17 03:33N 62°02' W 006°41'3 3.3
2016-Aug-17 02:33N 62°05' W 006°37'5 5.4
2016-Aug-17 01:33N 62°10' W 006°35'7 6.8
2016-Aug-17 00:33N 62°15' W 006°45'8 8.1
2016-Aug-16 23:33N 62°21' W 006°56'8 8.2
2016-Aug-16 22:33N 62°22' W 007°14'2 2.3
2016-Aug-16 21:33N 62°22' W 007°18'3 3.2
2016-Aug-16 20:33N 62°26' W 007°18'4 3.6
2016-Aug-16 19:33N 62°29' W 007°22'5 4.6
2016-Aug-16 18:33N 62°30' W 007°32'4 4.2
2016-Aug-16 17:33N 62°31' W 007°41'4 3.6
2016-Aug-16 16:33N 62°32' W 007°48'3 3.5
2016-Aug-16 15:33N 62°34' W 007°55'3 3.1
2016-Aug-16 14:33N 62°36' W 007°60'1 0.7
2016-Aug-16 13:33N 62°35' W 007°60'1 0.7
2016-Aug-16 12:33N 62°35' W 007°58'3 3.3
2016-Aug-16 11:33N 62°36' W 007°51'6 6.1
2016-Aug-16 10:33N 62°37' W 007°38'3 3.2
2016-Aug-16 09:33N 62°38' W 007°31'3 2.8
2016-Aug-16 08:33N 62°40' W 007°35'3 2.7
2016-Aug-16 07:33N 62°41' W 007°29'8 2.6
2016-Aug-16 04:33N 62°46' W 007°15'2 1.6
2016-Aug-16 03:33N 62°44' W 007°13'3 3.4
2016-Aug-16 02:33N 62°42' W 007°18'3 3.4
2016-Aug-16 01:33N 62°42' W 007°10'3 2.7
2016-Aug-16 00:33N 62°41' W 007°05'2 1.7
2016-Aug-15 23:33N 62°42' W 007°02'4 4.2
2016-Aug-15 22:33N 62°46' W 006°58'  
Track history (hours):
 
Tides and Currents Weather Stations Pressure Air Temp Water Temp Dewpoint Dewpoint Depression Visibility Wind Speed Wind Dir Waves Ship Positions

Oceanographic research ship Magnus Heinason (Faroe Islands)

Detailed information on ship capabilities available from ARCUS's ALIAS (Arctic Logistics Information and Support) project.

Last reported at 2016-Aug-25 21:33 UTC. Time now 2016-Aug-25 22:01 UTC.
Position N 62°01' W 007°39'.

Length 44 m; draft 4 m.

Type: . MMSI: 231041000.

Date/timePositionNaut miles runAvg speedWind from/ knotsBaromVisibWave heightAir tempDewpointWater temp
2016-Aug-25 21:33N 62°01' W 007°39'4 3.6
2016-Aug-25 20:33N 62°00' W 007°31'6 6.4
2016-Aug-25 19:33N 62°05' W 007°22'5 5.1
2016-Aug-25 18:33N 62°05' W 007°33'1010.1
2016-Aug-25 17:33N 62°02' W 007°54'1 1.0
2016-Aug-25 16:33N 62°01' W 007°54'3 2.9
2016-Aug-25 15:33N 62°04' W 007°57'6 5.5
2016-Aug-25 14:33N 62°08' W 008°06'4 4.0
2016-Aug-25 13:33N 62°12' W 008°06'3 2.5
2016-Aug-25 12:33N 62°14' W 008°03'6 5.6
2016-Aug-25 11:33N 62°11' W 008°13'5 5.1
2016-Aug-25 10:33N 62°08' W 008°22'3 3.3
2016-Aug-25 09:33N 62°11' W 008°22'3 3.3
2016-Aug-25 08:33N 62°14' W 008°21'4 3.9
2016-Aug-25 07:33N 62°17' W 008°15'5 4.9
2016-Aug-25 06:33N 62°21' W 008°10'9 4.5
2016-Aug-25 04:33N 62°19' W 007°52'3 3.3
2016-Aug-25 03:33N 62°16' W 007°52'1 0.9
2016-Aug-25 02:34N 62°15' W 007°52'6 5.9
2016-Aug-25 01:33N 62°12' W 007°41'3 2.6
2016-Aug-25 00:33N 62°14' W 007°42'3 3.2
2016-Aug-24 23:33N 62°15' W 007°35'4 3.9
2016-Aug-24 22:33N 62°14' W 007°26'5 4.5
2016-Aug-24 21:33N 62°13' W 007°17'1 0.6
2016-Aug-24 20:33N 62°13' W 007°18'4 4.2
2016-Aug-24 19:33N 62°17' W 007°20'7 6.8
2016-Aug-24 18:33N 62°23' W 007°26'3 3.5
2016-Aug-24 17:33N 62°20' W 007°30'5 4.8
2016-Aug-24 16:33N 62°17' W 007°38'3 3.0
2016-Aug-24 15:33N 62°20' W 007°40'4 3.6
2016-Aug-24 14:33N 62°21' W 007°48'5 5.3
2016-Aug-24 13:33N 62°26' W 007°52'3 2.6
2016-Aug-24 12:33N 62°26' W 007°58'8 8.2
2016-Aug-24 11:33N 62°32' W 008°09'3 2.8
2016-Aug-24 10:33N 62°31' W 008°14'3 3.4
2016-Aug-24 09:33N 62°28' W 008°19'6 6.1
2016-Aug-24 08:33N 62°23' W 008°26'4 4.0
2016-Aug-24 07:33N 62°20' W 008°32'4 3.7
2016-Aug-24 06:33N 62°17' W 008°37'12 6.1
2016-Aug-24 04:33N 62°25' W 008°58'3 2.6
2016-Aug-24 03:33N 62°27' W 008°54'2 2.1
2016-Aug-24 02:33N 62°25' W 008°55'3 3.5
2016-Aug-24 01:33N 62°23' W 009°01'2 2.4
2016-Aug-24 00:33N 62°25' W 009°00'2 2.1
2016-Aug-23 23:33N 62°23' W 009°01'2 1.7
2016-Aug-23 22:33N 62°22' W 008°58'2 2.2
2016-Aug-23 21:33N 62°23' W 008°55'4 3.9
2016-Aug-23 20:33N 62°20' W 008°59'3 2.8
2016-Aug-23 19:33N 62°17' W 008°59'3 2.9
2016-Aug-23 18:33N 62°15' W 009°02'3 3.3
2016-Aug-23 17:33N 62°11' W 009°03'6 6.0
2016-Aug-23 16:33N 62°12' W 008°51'4 4.0
2016-Aug-23 15:33N 62°13' W 008°42'4 3.8
2016-Aug-23 14:33N 62°10' W 008°43'8 7.9
2016-Aug-23 13:33N 62°02' W 008°41'3 2.6
2016-Aug-23 12:33N 62°04' W 008°43'2 2.4
2016-Aug-23 11:33N 62°03' W 008°38'6 5.7
2016-Aug-23 10:33N 61°58' W 008°40'1 0.9
2016-Aug-23 09:33N 61°58' W 008°41'1 1.0
2016-Aug-23 08:33N 61°59' W 008°39'4 4.1
2016-Aug-23 07:33N 61°55' W 008°38'6 6.3
2016-Aug-23 06:33N 61°49' W 008°32'3 3.5
2016-Aug-23 05:33N 61°46' W 008°28'3 2.8
2016-Aug-23 04:33N 61°49' W 008°29'7 6.8
2016-Aug-23 03:33N 61°51' W 008°16'3 2.7
2016-Aug-23 02:33N 61°51' W 008°10'4 3.9
2016-Aug-23 01:33N 61°48' W 008°07'3 3.3
2016-Aug-23 00:33N 61°44' W 008°05'7 6.6
2016-Aug-22 23:33N 61°41' W 008°17'3 3.3
2016-Aug-22 22:33N 61°40' W 008°10'4 3.9
2016-Aug-22 21:33N 61°39' W 008°17'4 3.5
2016-Aug-22 20:34N 61°35' W 008°16'9 9.4
2016-Aug-22 19:34N 61°40' W 007°59'3 3.5
2016-Aug-22 18:33N 61°42' W 007°53'6 6.1
2016-Aug-22 17:33N 61°45' W 007°41'1010.3
2016-Aug-22 16:33N 61°50' W 007°22'1010.4
2016-Aug-22 15:33N 61°54' W 007°02'10 9.9
2016-Aug-22 14:34N 61°59' W 006°43'2 2.3
2016-Aug-22 13:34N 62°00' W 006°46'0 0.0
2016-Aug-22 12:33N 62°00' W 006°46'0 0.0
2016-Aug-22 11:33N 62°00' W 006°46'0 0.0
2016-Aug-22 10:33N 62°00' W 006°46'0 0.0
2016-Aug-22 09:33N 62°00' W 006°46'0 0.0
2016-Aug-22 08:33N 62°00' W 006°46'0 0.0
2016-Aug-22 07:33N 62°00' W 006°46'3 2.5
2016-Aug-22 06:33N 61°58' W 006°43'5 4.9
2016-Aug-22 05:33N 61°55' W 006°52'6 5.7
2016-Aug-22 04:33N 61°53' W 007°03'9 8.8
2016-Aug-22 03:33N 61°47' W 007°15'9 8.6
2016-Aug-22 02:33N 61°40' W 007°27'4 4.2
2016-Aug-22 01:33N 61°38' W 007°34'2 1.6
2016-Aug-22 00:33N 61°36' W 007°33'1 1.1
2016-Aug-21 23:33N 61°36' W 007°35'7 7.4
2016-Aug-21 22:33N 61°41' W 007°24'3 3.3
2016-Aug-21 21:33N 61°45' W 007°22'3 3.4
2016-Aug-21 20:33N 61°48' W 007°21'3 3.3
2016-Aug-21 19:33N 61°51' W 007°23'3 3.1
2016-Aug-21 18:33N 61°54' W 007°25'5 4.9
2016-Aug-21 17:33N 61°56' W 007°15'3 2.6
2016-Aug-21 16:34N 61°55' W 007°21'3 3.4
2016-Aug-21 15:33N 61°52' W 007°18'2 1.7
2016-Aug-21 14:33N 61°50' W 007°17'1 0.9
2016-Aug-21 13:33N 61°49' W 007°18'0 0.3
2016-Aug-21 12:33N 61°50' W 007°18'0 0.4
2016-Aug-21 11:33N 61°50' W 007°18'9 8.5
2016-Aug-21 10:33N 61°45' W 007°04'2 2.3
2016-Aug-21 09:33N 61°43' W 007°02'1 1.3
2016-Aug-21 08:33N 61°43' W 007°04'3 3.1
2016-Aug-21 07:33N 61°45' W 007°08'2 1.5
2016-Aug-21 06:33N 61°46' W 007°10'4 4.0
2016-Aug-21 05:33N 61°43' W 007°05'4 3.9
2016-Aug-21 04:33N 61°40' W 007°12'4 3.6
2016-Aug-21 03:33N 61°38' W 007°17'4 3.9
2016-Aug-21 02:33N 61°34' W 007°14'3 3.5
2016-Aug-21 01:34N 61°31' W 007°11'7 7.4
2016-Aug-21 00:33N 61°24' W 007°07'3 3.3
2016-Aug-20 23:33N 61°22' W 007°02'5 4.5
2016-Aug-20 22:33N 61°18' W 006°55'4 3.5
2016-Aug-20 21:33N 61°16' W 006°51'7 7.5
2016-Aug-20 20:33N 61°15' W 006°35'6 5.7
2016-Aug-20 19:33N 61°13' W 006°24'3 3.4
2016-Aug-20 18:33N 61°10' W 006°24'3 2.6
2016-Aug-20 17:33N 61°07' W 006°23'3 3.1
2016-Aug-20 16:33N 61°06' W 006°29'3 2.9
2016-Aug-20 15:30N 61°06' W 006°35'2 2.5
2016-Aug-20 14:32N 61°04' W 006°39'9 4.3
2016-Aug-20 12:33N 61°01' W 006°23'7 6.6
2016-Aug-20 11:33N 60°59' W 006°09'3 3.2
2016-Aug-20 10:33N 60°56' W 006°09'2 1.9
2016-Aug-20 09:33N 60°56' W 006°13'3 3.5
2016-Aug-20 08:33N 60°59' W 006°17'2 2.5
2016-Aug-20 07:33N 60°57' W 006°21'4 3.6
2016-Aug-20 06:33N 60°54' W 006°24'17 4.3
2016-Aug-20 02:33N 60°54' W 006°59'9 3.0
2016-Aug-19 23:30N 60°47' W 006°48'15 1.9
2016-Aug-19 15:32N 60°42' W 006°20'5 5.6
2016-Aug-19 14:33N 60°41' W 006°09'4 3.6
2016-Aug-19 13:33N 60°45' W 006°10'4 3.4
2016-Aug-19 12:18N 60°48' W 006°14'8 7.3
2016-Aug-19 11:12N 60°50' W 005°59'5 8.1
2016-Aug-19 10:32N 60°51' W 005°48'3 2.6
2016-Aug-19 09:23N 60°52' W 005°42'3 3.7
2016-Aug-19 08:33N 60°52' W 005°36'3 3.4
2016-Aug-19 07:33N 60°55' W 005°31'7 7.3
2016-Aug-19 06:33N 61°01' W 005°23'3 3.1
2016-Aug-19 05:33N 61°04' W 005°21'7 7.0
2016-Aug-19 04:33N 61°08' W 005°33'9 8.5
2016-Aug-19 03:33N 61°11' W 005°49'9 8.8
2016-Aug-19 02:33N 61°15' W 006°06'3 3.1
2016-Aug-19 01:33N 61°18' W 006°06'7 6.9
2016-Aug-19 00:33N 61°25' W 006°10'9 9.1
2016-Aug-18 23:33N 61°33' W 006°18'9 9.5
2016-Aug-18 22:33N 61°42' W 006°26'9 9.3
2016-Aug-18 21:33N 61°50' W 006°34'9 9.4
2016-Aug-18 20:34N 61°59' W 006°43'2 2.4
2016-Aug-18 19:33N 62°00' W 006°46'0 0.0
2016-Aug-18 18:33N 62°00' W 006°46'0 0.0
2016-Aug-18 17:33N 62°00' W 006°46'0 0.0
2016-Aug-18 16:33N 62°00' W 006°46'0 0.0
2016-Aug-18 15:33N 62°00' W 006°46'0 0.0
2016-Aug-18 14:33N 62°00' W 006°46'0 0.0
2016-Aug-18 13:33N 62°00' W 006°46'0 0.0
2016-Aug-18 12:33N 62°00' W 006°46'0 0.0
2016-Aug-18 11:33N 62°00' W 006°46'0 0.0
2016-Aug-18 10:33N 62°00' W 006°46'0 0.0
2016-Aug-18 09:33N 62°00' W 006°46'0 0.0
2016-Aug-18 08:33N 62°00' W 006°46'0 0.0
2016-Aug-18 07:34N 62°00' W 006°46'0 0.0
2016-Aug-18 06:33N 62°00' W 006°46'0 0.0
2016-Aug-18 05:34N 62°00' W 006°46'0 0.0
2016-Aug-18 04:33N 62°00' W 006°46'0 0.0
2016-Aug-18 03:33N 62°00' W 006°46'0 0.0
2016-Aug-18 02:33N 62°00' W 006°46'0 0.0
2016-Aug-18 01:33N 62°00' W 006°46'0 0.0
2016-Aug-18 00:33N 62°00' W 006°46'0 0.0
2016-Aug-17 23:33N 62°00' W 006°46'0 0.0
2016-Aug-17 22:33N 62°00' W 006°46'0 0.0
2016-Aug-17 21:33N 62°00' W 006°46'0 0.0
2016-Aug-17 20:33N 62°00' W 006°46'0 0.0
2016-Aug-17 19:33N 62°00' W 006°46'0 0.0
2016-Aug-17 18:33N 62°00' W 006°46'0 0.0
2016-Aug-17 17:33N 62°00' W 006°46'0 0.0
2016-Aug-17 16:33N 62°00' W 006°46'0 0.0
2016-Aug-17 15:33N 62°00' W 006°46'0 0.0
2016-Aug-17 14:33N 62°00' W 006°46'0 0.0
2016-Aug-17 13:33N 62°00' W 006°46'0 0.0
2016-Aug-17 12:33N 62°00' W 006°46'0 0.0
2016-Aug-17 11:33N 62°00' W 006°46'0 0.0
2016-Aug-17 10:33N 62°00' W 006°46'0 0.1
2016-Aug-17 09:33N 62°00' W 006°46'0 0.1
2016-Aug-17 08:33N 62°00' W 006°46'0 0.0
2016-Aug-17 07:33N 62°00' W 006°46'0 0.0
2016-Aug-17 06:33N 62°00' W 006°46'0 0.0
2016-Aug-17 05:34N 62°00' W 006°46'1 0.8
2016-Aug-17 04:33N 61°60' W 006°45'3 3.0
2016-Aug-17 03:33N 62°02' W 006°41'3 3.3
2016-Aug-17 02:33N 62°05' W 006°37'5 5.4
2016-Aug-17 01:33N 62°10' W 006°35'7 6.8
2016-Aug-17 00:33N 62°15' W 006°45'8 8.1
2016-Aug-16 23:33N 62°21' W 006°56'8 8.2
2016-Aug-16 22:33N 62°22' W 007°14'2 2.3
2016-Aug-16 21:33N 62°22' W 007°18'3 3.2
2016-Aug-16 20:33N 62°26' W 007°18'4 3.6
2016-Aug-16 19:33N 62°29' W 007°22'5 4.6
2016-Aug-16 18:33N 62°30' W 007°32'4 4.2
2016-Aug-16 17:33N 62°31' W 007°41'4 3.6
2016-Aug-16 16:33N 62°32' W 007°48'3 3.5
2016-Aug-16 15:33N 62°34' W 007°55'3 3.1
2016-Aug-16 14:33N 62°36' W 007°60'1 0.7
2016-Aug-16 13:33N 62°35' W 007°60'1 0.7
2016-Aug-16 12:33N 62°35' W 007°58'3 3.3
2016-Aug-16 11:33N 62°36' W 007°51'6 6.1
2016-Aug-16 10:33N 62°37' W 007°38'3 3.2
2016-Aug-16 09:33N 62°38' W 007°31'3 2.8
2016-Aug-16 08:33N 62°40' W 007°35'3 2.7
2016-Aug-16 07:33N 62°41' W 007°29'8 2.6
2016-Aug-16 04:33N 62°46' W 007°15'2 1.6
2016-Aug-16 03:33N 62°44' W 007°13'3 3.4
2016-Aug-16 02:33N 62°42' W 007°18'3 3.4
2016-Aug-16 01:33N 62°42' W 007°10'3 2.7
2016-Aug-16 00:33N 62°41' W 007°05'2 1.7
2016-Aug-15 23:33N 62°42' W 007°02'4 4.2
2016-Aug-15 22:33N 62°46' W 006°58'  

Dump ship's entire track history